Aérodrome :
LOGIN :

S'inscrire | Disclaimer

   EN    FR    IT 

 










Légende :    VFR   VFR Marginal   IFR   IFR Intensif   IFR Très Intensif
Visi : 
Plafond : 
>= 8 km
>= 3000ft
5 à 8 km
1000 à 3000 ft
1500m à 5 km
500 à 1000 ft
800 à 1500m
200 à 500 ft
< 800m
< 200 ft
Symboles :   Orages  Brouillard  Fortes neiges  Fortes précipitations  Vent > 20 kt
SIGMETs :   Divers  Orages  Givrage  Turbulence  Onde Orograph.  Cendres Volcan.







- Altitude de l'aérodrome : 1306 ft
- Code IATA : ACH


LSZR - Alten Rhein

DERNIER METAR :
  • 222020Z AUTO VRB01KT 9999 -RA SCT039 BKN046 18/17 Q1017

METARs EXPIRÉS :
  • 221950Z AUTO VRB01KT 9999 -RA OVC060 18/17 Q1017
  • 221920Z 15004KT 9999 -RA BKN080 18/16 Q1016 NOSIG RMK N
  • 221850Z VRB02KT 9000 RA BKN080 18/16 Q1016 NOSIG RMK M
  • 221820Z 01005KT 330V060 9999 FEW044 BKN080 20/15 Q1016 NOSIG RMK L
  • 221750Z 01005KT 330V060 9999 FEW044 BKN080 20/15 Q1016 NOSIG RMK L

TAF TAF LSZR
Valide du 22 à 15h jusqu'au 23 à 00h UTC


221425Z 2215/2224 VRB03KT 9999 BKN080
PROB40
TEMPO 2215/2222 SHRA SCT050TCU
ATIS : +41 71 858 51 66
Pas de NOTAMs connus pour ce terrain.



MET'MAP, la Météo Aéronautique d'un coup d'oeil ! - Copyright ORBIFLY Décembre 2007 - Disclaimer

ORBIFLY MET'MAP TEAM :

Programmation & Développement : Alexandra Zaïnal
Conception & Développement : Baudouin d'Aumeries
Co-Programmation & Développement : Marc-Olivier Méhu
Soutien technique & logistique : Manuel Goepfert

Contact : metmap@orbifly.com




SOURCES & CREDITS :

   NOAA